createdAt,value
2019-02-04T00:00:46.857Z,97.70
2019-02-04T00:01:56.280Z,97.80
2019-02-04T00:03:04.427Z,97.80
2019-02-04T00:04:14.172Z,97.90
2019-02-04T00:05:19.402Z,97.90
2019-02-04T00:06:37.534Z,97.90
2019-02-04T00:07:52.386Z,97.90
2019-02-04T00:09:03.767Z,98.00
2019-02-04T00:10:17.376Z,98.00
2019-02-04T00:11:30.342Z,98.10
2019-02-04T00:12:41.921Z,98.10
2019-02-04T00:13:51.299Z,98.20
2019-02-04T00:15:03.136Z,98.20
2019-02-04T00:16:19.656Z,98.20
2019-02-04T00:17:32.028Z,98.20
2019-02-04T00:18:53.691Z,98.20
2019-02-04T00:20:09.010Z,98.20
2019-02-04T00:21:25.532Z,98.20
2019-02-04T00:22:42.387Z,98.30
2019-02-04T00:23:52.744Z,98.30
2019-02-04T00:25:14.222Z,98.40
2019-02-04T00:26:33.446Z,98.40
2019-02-04T00:27:40.545Z,98.40
2019-02-04T00:28:47.474Z,98.40
2019-02-04T00:30:01.760Z,98.40
2019-02-04T00:31:15.947Z,98.40
2019-02-04T00:32:33.875Z,98.50
2019-02-04T00:33:47.750Z,98.50
2019-02-04T00:35:02.231Z,98.50
2019-02-04T00:36:20.488Z,98.50
2019-02-04T00:37:28.508Z,98.50
2019-02-04T00:38:42.463Z,98.40
2019-02-04T00:39:59.421Z,98.40
2019-02-04T00:41:10.283Z,98.50
2019-02-04T00:42:21.399Z,98.50
2019-02-04T00:43:28.810Z,98.50
2019-02-04T00:44:38.100Z,98.50
2019-02-04T00:45:53.874Z,98.50
2019-02-04T00:47:10.001Z,98.50
2019-02-04T00:48:23.930Z,98.60
2019-02-04T00:49:43.367Z,98.70
2019-02-04T00:50:47.618Z,98.60
2019-02-04T00:52:00.783Z,98.70
2019-02-04T00:53:13.219Z,98.70
2019-02-04T00:54:20.745Z,98.70
2019-02-04T00:55:33.328Z,98.80
2019-02-04T00:56:44.575Z,98.70
2019-02-04T00:57:53.259Z,98.80
2019-02-04T00:59:11.419Z,98.70
2019-02-04T01:00:26.861Z,98.80
2019-02-04T01:01:35.904Z,98.80
2019-02-04T01:02:49.347Z,98.90
2019-02-04T01:03:56.803Z,98.90
2019-02-04T01:05:08.455Z,99.10
2019-02-04T01:06:27.259Z,99.10
2019-02-04T01:07:32.955Z,98.90
2019-02-04T01:08:42.919Z,98.90
2019-02-04T01:09:56.296Z,98.90
2019-02-04T01:11:03.470Z,98.90
2019-02-04T01:12:14.946Z,99.00
2019-02-04T01:13:31.588Z,99.00
2019-02-04T01:14:41.830Z,99.00
2019-02-04T01:15:50.603Z,99.00
2019-02-04T01:17:03.449Z,99.00
2019-02-04T01:18:16.409Z,99.00
2019-02-04T01:19:38.237Z,99.10
2019-02-04T01:20:48.338Z,99.10
2019-02-04T01:22:02.784Z,99.10
2019-02-04T01:23:08.722Z,99.10
2019-02-04T01:24:20.027Z,99.10
2019-02-04T01:25:30.522Z,99.10
2019-02-04T01:26:34.178Z,99.10
2019-02-04T01:27:47.931Z,99.10
2019-02-04T01:29:00.317Z,99.10
2019-02-04T01:30:15.416Z,99.10
2019-02-04T01:31:33.297Z,99.10
2019-02-04T01:32:44.468Z,99.10
2019-02-04T01:33:52.542Z,99.00
2019-02-04T01:35:01.245Z,99.00
2019-02-04T01:36:23.304Z,99.00
2019-02-04T01:37:35.497Z,99.10
2019-02-04T01:38:43.681Z,99.10
2019-02-04T01:39:49.640Z,99.10
2019-02-04T01:40:59.985Z,99.10
2019-02-04T01:42:20.169Z,99.10
2019-02-04T01:43:29.393Z,99.10
2019-02-04T01:44:37.838Z,99.10
2019-02-04T01:45:45.074Z,99.10
2019-02-04T01:46:55.354Z,99.10
2019-02-04T01:48:08.120Z,99.10
2019-02-04T01:49:18.478Z,99.00
2019-02-04T01:50:26.878Z,99.10
2019-02-04T01:51:34.757Z,99.10
2019-02-04T01:52:40.968Z,99.10
2019-02-04T01:53:53.465Z,99.10
2019-02-04T01:55:02.551Z,99.10
2019-02-04T01:56:09.019Z,99.10
2019-02-04T01:57:28.671Z,99.40
2019-02-04T01:58:38.344Z,99.20
2019-02-04T01:59:45.690Z,99.10
2019-02-04T02:00:56.797Z,99.10
2019-02-04T02:02:07.822Z,99.10
2019-02-04T02:03:19.906Z,99.20
2019-02-04T02:04:36.096Z,99.10
2019-02-04T02:05:43.373Z,99.20
2019-02-04T02:06:51.187Z,99.20
2019-02-04T02:07:56.091Z,99.20
2019-02-04T02:09:02.325Z,99.20
2019-02-04T02:10:16.456Z,99.20
2019-02-04T02:11:23.850Z,99.20
2019-02-04T02:12:30.618Z,99.20
2019-02-04T02:13:37.016Z,99.50
2019-02-04T02:14:54.050Z,99.20
2019-02-04T02:16:02.942Z,99.20
2019-02-04T02:17:13.347Z,99.30
2019-02-04T02:18:23.362Z,99.20
2019-02-04T02:19:29.675Z,99.20
2019-02-04T02:20:37.628Z,99.20
2019-02-04T02:21:59.358Z,99.20
2019-02-04T02:23:08.372Z,99.20
2019-02-04T02:24:18.788Z,99.20
2019-02-04T02:25:25.329Z,99.20
2019-02-04T02:26:33.215Z,99.20
2019-02-04T02:27:44.236Z,99.10
2019-02-04T02:28:51.982Z,99.10
2019-02-04T02:30:01.012Z,99.10
2019-02-04T02:31:05.973Z,99.00
2019-02-04T02:32:12.778Z,99.00
2019-02-04T02:33:21.733Z,99.00
2019-02-04T02:34:31.950Z,99.00
2019-02-04T02:35:40.922Z,99.00
2019-02-04T02:36:53.459Z,98.90
2019-02-04T02:38:01.312Z,98.90
2019-02-04T02:39:10.240Z,98.90
2019-02-04T02:40:46.881Z,98.90
2019-02-04T02:42:02.858Z,98.90
2019-02-04T02:43:12.163Z,98.90
2019-02-04T02:44:22.158Z,98.90
2019-02-04T02:45:26.795Z,98.80
2019-02-04T02:46:31.442Z,98.80
2019-02-04T02:47:38.768Z,98.90
2019-02-04T02:48:49.611Z,98.90
2019-02-04T02:49:57.158Z,98.90
2019-02-04T02:51:03.777Z,98.90
2019-02-04T02:52:12.303Z,98.90
2019-02-04T02:53:18.716Z,98.80
2019-02-04T02:54:29.937Z,98.80
2019-02-04T02:55:38.891Z,98.80
2019-02-04T02:56:45.954Z,98.90
2019-02-04T02:58:00.262Z,98.90
2019-02-04T02:59:17.115Z,98.90
2019-02-04T03:00:34.335Z,98.90
2019-02-04T03:01:40.477Z,98.80
2019-02-04T03:02:53.062Z,98.80
2019-02-04T03:04:04.186Z,98.90
2019-02-04T03:05:14.707Z,98.90
2019-02-04T03:06:31.715Z,98.90
2019-02-04T03:07:32.328Z,98.80
2019-02-04T03:08:41.701Z,98.80
2019-02-04T03:09:54.109Z,98.80
2019-02-04T03:11:00.089Z,98.80
2019-02-04T03:12:11.662Z,98.80
2019-02-04T03:13:19.376Z,98.70
2019-02-04T03:14:25.336Z,98.70
2019-02-04T03:15:31.919Z,98.70
2019-02-04T03:16:37.865Z,98.60
2019-02-04T03:17:51.419Z,98.60
2019-02-04T03:18:55.242Z,98.60
2019-02-04T03:20:04.672Z,98.60
2019-02-04T03:21:14.861Z,98.60
2019-02-04T03:22:25.961Z,98.60
2019-02-04T03:23:37.117Z,98.60
2019-02-04T03:24:49.364Z,98.60
2019-02-04T03:25:57.322Z,98.50
2019-02-04T03:27:02.035Z,98.50
2019-02-04T03:28:08.206Z,98.50
2019-02-04T03:29:22.346Z,98.40
2019-02-04T03:30:40.440Z,98.50
2019-02-04T03:31:49.292Z,98.50
2019-02-04T03:32:59.460Z,98.50
2019-02-04T03:34:07.475Z,98.50
2019-02-04T03:35:13.824Z,98.70
2019-02-04T03:36:23.115Z,98.60
2019-02-04T03:37:30.036Z,98.60
2019-02-04T03:38:37.564Z,98.60
2019-02-04T03:39:46.746Z,98.50
2019-02-04T03:40:53.395Z,98.60
2019-02-04T03:42:01.333Z,98.50
2019-02-04T03:43:11.522Z,98.50
2019-02-04T03:44:19.464Z,98.50
2019-02-04T03:45:24.912Z,98.50
2019-02-04T03:46:31.634Z,98.40
2019-02-04T03:47:39.923Z,98.50
2019-02-04T03:48:45.438Z,98.50
2019-02-04T03:49:50.998Z,98.50
2019-02-04T03:50:57.066Z,98.40
2019-02-04T03:52:05.554Z,98.40
2019-02-04T03:53:12.660Z,98.40
2019-02-04T03:54:19.084Z,98.40
2019-02-04T03:55:26.604Z,98.40
2019-02-04T03:56:32.411Z,98.40
2019-02-04T03:57:38.138Z,98.30
2019-02-04T03:58:43.582Z,98.40
2019-02-04T03:59:51.838Z,98.40
2019-02-04T04:01:00.401Z,98.30
2019-02-04T04:02:06.602Z,98.30
2019-02-04T04:03:17.815Z,98.20
2019-02-04T04:04:26.027Z,98.30
2019-02-04T04:05:32.766Z,98.30
2019-02-04T04:06:40.878Z,98.60
2019-02-04T04:07:46.308Z,98.60
2019-02-04T04:08:53.384Z,98.30
2019-02-04T04:09:58.716Z,98.20
2019-02-04T04:11:05.240Z,98.20
2019-02-04T04:12:12.254Z,98.20
2019-02-04T04:13:19.012Z,98.20
2019-02-04T04:14:24.526Z,98.20
2019-02-04T04:15:35.247Z,98.20
2019-02-04T04:16:41.267Z,98.50
2019-02-04T04:17:48.201Z,98.20
2019-02-04T04:18:57.223Z,98.20
2019-02-04T04:20:10.051Z,98.10
2019-02-04T04:21:18.749Z,98.10
2019-02-04T04:22:28.537Z,98.00
2019-02-04T04:23:34.325Z,97.90
2019-02-04T04:24:42.026Z,98.20
2019-02-04T04:25:50.679Z,97.90
2019-02-04T04:27:01.638Z,97.80
2019-02-04T04:28:07.251Z,97.90
2019-02-04T04:29:14.464Z,97.90
2019-02-04T04:30:23.492Z,97.90
2019-02-04T04:31:30.915Z,97.90
2019-02-04T04:32:41.878Z,97.90
2019-02-04T04:33:50.639Z,97.90
2019-02-04T04:35:03.571Z,97.80
2019-02-04T04:36:11.937Z,97.90
2019-02-04T04:37:18.774Z,97.90
2019-02-04T04:38:24.510Z,97.90
2019-02-04T04:39:29.744Z,97.80
2019-02-04T04:40:35.174Z,97.80
2019-02-04T04:41:43.170Z,97.70
2019-02-04T04:42:48.501Z,97.70
2019-02-04T04:44:00.642Z,97.70
2019-02-04T04:45:06.128Z,97.70
2019-02-04T04:46:16.084Z,97.70
2019-02-04T04:47:30.930Z,98.00
2019-02-04T04:48:39.784Z,97.70
2019-02-04T04:49:50.750Z,97.70
2019-02-04T04:50:56.443Z,97.70
2019-02-04T04:52:04.539Z,97.70
2019-02-04T04:53:16.708Z,97.60
2019-02-04T04:54:21.652Z,97.60
2019-02-04T04:55:36.260Z,97.60
2019-02-04T04:56:52.092Z,97.90
2019-02-04T04:58:04.907Z,97.80
2019-02-04T04:59:21.796Z,97.50
2019-02-04T05:00:32.361Z,97.50
2019-02-04T05:01:46.532Z,97.50
2019-02-04T05:03:08.518Z,97.50
2019-02-04T05:04:21.699Z,97.40
2019-02-04T05:05:31.129Z,97.60
2019-02-04T05:06:42.835Z,97.60
2019-02-04T05:07:55.433Z,97.80
2019-02-04T05:09:01.562Z,97.50
2019-02-04T05:10:08.906Z,97.50
2019-02-04T05:11:22.295Z,97.50
2019-02-04T05:12:35.916Z,97.50
2019-02-04T05:13:54.453Z,97.50
2019-02-04T05:15:05.052Z,97.50
2019-02-04T05:16:12.047Z,97.60
2019-02-04T05:17:24.271Z,97.50
2019-02-04T05:18:38.191Z,97.60
2019-02-04T05:19:52.908Z,97.70
2019-02-04T05:21:07.995Z,97.70
2019-02-04T05:22:19.750Z,97.70
2019-02-04T05:23:25.210Z,97.70
2019-02-04T05:24:37.448Z,97.70
2019-02-04T05:25:42.909Z,97.70
2019-02-04T05:26:52.495Z,97.70
2019-02-04T05:28:03.608Z,97.70
2019-02-04T05:29:22.693Z,97.70
2019-02-04T05:30:34.885Z,97.70
2019-02-04T05:31:43.849Z,97.70
2019-02-04T05:32:52.946Z,97.70
2019-02-04T05:34:01.095Z,97.60
2019-02-04T05:35:13.834Z,97.60
2019-02-04T05:36:24.451Z,97.60
2019-02-04T05:37:34.160Z,97.70
2019-02-04T05:38:47.870Z,97.60
2019-02-04T05:39:58.094Z,97.60
2019-02-04T05:41:09.438Z,97.70
2019-02-04T05:42:16.560Z,97.70
2019-02-04T05:43:25.940Z,97.70
2019-02-04T05:44:39.795Z,97.70
2019-02-04T05:45:54.876Z,97.70
2019-02-04T05:47:00.969Z,97.70
2019-02-04T05:48:12.712Z,97.70
2019-02-04T05:49:23.172Z,97.70
2019-02-04T05:50:30.595Z,97.70
2019-02-04T05:51:44.988Z,97.60
2019-02-04T05:52:59.749Z,97.70
2019-02-04T05:54:13.087Z,97.60
2019-02-04T05:55:22.978Z,97.50
2019-02-04T05:56:31.962Z,97.60
2019-02-04T05:57:45.521Z,97.60
2019-02-04T05:58:54.945Z,97.60
2019-02-04T06:00:04.853Z,97.60
2019-02-04T06:01:20.382Z,97.60
2019-02-04T06:02:30.499Z,97.50
2019-02-04T06:03:38.465Z,97.60
2019-02-04T06:04:53.535Z,97.60
2019-02-04T06:06:01.401Z,97.90
2019-02-04T06:07:15.499Z,97.70
2019-02-04T06:08:21.191Z,97.70
2019-02-04T06:09:36.637Z,97.70
2019-02-04T06:10:40.745Z,97.70
2019-02-04T06:11:44.904Z,97.70
2019-02-04T06:12:49.000Z,97.70
2019-02-04T06:13:53.174Z,97.80
2019-02-04T06:14:57.348Z,97.80
2019-02-04T06:16:01.506Z,97.80
2019-02-04T06:17:05.574Z,97.80
2019-02-04T06:18:10.155Z,97.70
2019-02-04T06:19:14.438Z,97.70
2019-02-04T06:20:21.307Z,97.70
2019-02-04T06:21:25.422Z,97.70
2019-02-04T06:22:29.511Z,97.70
2019-02-04T06:23:33.600Z,97.60
2019-02-04T06:24:37.676Z,97.60
2019-02-04T06:25:41.771Z,97.70
2019-02-04T06:26:45.840Z,97.70
2019-02-04T06:27:49.954Z,97.80
2019-02-04T06:28:54.033Z,97.80
2019-02-04T06:29:58.131Z,97.70
2019-02-04T06:31:02.349Z,97.70
2019-02-04T06:32:06.591Z,97.70
2019-02-04T06:33:11.008Z,97.70
2019-02-04T06:34:15.167Z,97.70
2019-02-04T06:35:19.409Z,97.70
2019-02-04T06:36:23.922Z,97.70
2019-02-04T06:37:28.413Z,97.60
2019-02-04T06:38:32.555Z,97.70
2019-02-04T06:39:36.641Z,97.70
2019-02-04T06:40:40.760Z,97.70
2019-02-04T06:41:44.858Z,97.70
2019-02-04T06:42:48.939Z,97.70
2019-02-04T06:43:53.007Z,97.70
2019-02-04T06:44:57.083Z,97.60
2019-02-04T06:46:01.158Z,97.60
2019-02-04T06:47:05.259Z,97.60
2019-02-04T06:48:10.039Z,97.60
2019-02-04T06:49:14.115Z,97.50
2019-02-04T06:50:18.545Z,97.50
2019-02-04T06:51:22.722Z,97.40
2019-02-04T06:52:27.103Z,97.40
2019-02-04T06:53:31.580Z,97.50
2019-02-04T06:54:35.699Z,97.40
2019-02-04T06:55:39.785Z,97.40
2019-02-04T06:56:43.957Z,97.30
2019-02-04T06:57:48.220Z,97.30
2019-02-04T06:58:52.390Z,97.30
2019-02-04T06:59:56.547Z,97.30
2019-02-04T07:01:00.624Z,97.40
2019-02-04T07:02:04.775Z,97.40
2019-02-04T07:03:09.200Z,97.30
2019-02-04T07:04:13.265Z,97.20
2019-02-04T07:05:17.551Z,97.20
2019-02-04T07:06:21.662Z,97.10
2019-02-04T07:07:25.823Z,97.00
2019-02-04T07:08:30.285Z,97.00
2019-02-04T07:09:34.418Z,97.00
2019-02-04T07:10:38.495Z,97.00
2019-02-04T07:11:42.752Z,97.10
2019-02-04T07:12:46.840Z,97.10
2019-02-04T07:13:50.995Z,97.10
2019-02-04T07:14:55.113Z,97.10
2019-02-04T07:15:59.187Z,97.30
2019-02-04T07:17:03.274Z,97.20
2019-02-04T07:18:07.478Z,97.20
2019-02-04T07:19:23.430Z,97.30
2019-02-04T07:20:22.698Z,97.30
2019-02-04T07:21:26.795Z,97.30
2019-02-04T07:22:30.964Z,97.20
2019-02-04T07:23:35.096Z,97.20
2019-02-04T07:24:43.118Z,97.20
2019-02-04T07:25:44.951Z,97.20
2019-02-04T07:26:49.019Z,97.20
2019-02-04T07:27:53.118Z,97.10
2019-02-04T07:28:57.255Z,97.00
2019-02-04T07:30:01.410Z,97.10
2019-02-04T07:31:05.556Z,97.10
2019-02-04T07:32:10.143Z,97.10
2019-02-04T07:33:14.226Z,97.10
2019-02-04T07:34:18.303Z,97.20
2019-02-04T07:35:22.370Z,97.20
2019-02-04T07:36:26.438Z,97.20
2019-02-04T07:37:30.511Z,97.30
2019-02-04T07:38:34.607Z,97.20
2019-02-04T07:39:38.717Z,97.20
2019-02-04T07:40:43.187Z,97.10
2019-02-04T07:41:47.640Z,97.10
2019-02-04T07:42:52.075Z,97.10
2019-02-04T07:43:56.171Z,97.10
2019-02-04T07:45:00.239Z,97.10
2019-02-04T07:46:04.319Z,97.10
2019-02-04T07:47:08.589Z,97.40
2019-02-04T07:48:12.990Z,97.10
2019-02-04T07:49:17.059Z,97.10
2019-02-04T07:50:21.144Z,97.10
2019-02-04T07:51:25.303Z,97.10
2019-02-04T07:52:29.378Z,97.10
2019-02-04T07:53:33.467Z,97.10
2019-02-04T07:54:37.538Z,97.10
2019-02-04T07:55:41.607Z,97.10
2019-02-04T07:56:45.971Z,97.10
2019-02-04T07:57:50.528Z,97.10
2019-02-04T07:58:54.660Z,97.10
2019-02-04T07:59:58.824Z,97.00
2019-02-04T08:01:02.902Z,96.90
2019-02-04T08:02:07.150Z,96.90
2019-02-04T08:03:11.533Z,96.90
2019-02-04T08:04:15.710Z,96.90
2019-02-04T08:05:19.787Z,96.90
2019-02-04T08:06:23.880Z,97.10
2019-02-04T08:07:28.007Z,96.70
2019-02-04T08:08:32.133Z,96.70
2019-02-04T08:09:36.274Z,96.80
2019-02-04T08:10:40.379Z,96.80
2019-02-04T08:11:44.455Z,96.80
2019-02-04T08:13:00.508Z,96.80
2019-02-04T08:13:54.695Z,96.90
2019-02-04T08:14:58.787Z,96.80
2019-02-04T08:16:03.160Z,96.70
2019-02-04T08:17:07.365Z,97.00
2019-02-04T08:18:11.911Z,96.70
2019-02-04T08:19:16.018Z,96.60
2019-02-04T08:20:22.544Z,96.60
2019-02-04T08:21:25.879Z,96.60
2019-02-04T08:22:29.959Z,96.50
2019-02-04T08:23:34.031Z,96.50
2019-02-04T08:24:38.116Z,96.50
2019-02-04T08:25:42.191Z,96.50
2019-02-04T08:26:46.271Z,96.40
2019-02-04T08:27:50.326Z,96.40
2019-02-04T08:28:54.406Z,96.30
2019-02-04T08:29:58.883Z,96.10
2019-02-04T08:31:02.972Z,96.10
2019-02-04T08:32:07.178Z,96.10
2019-02-04T08:33:11.612Z,96.20
2019-02-04T08:34:15.875Z,96.20
2019-02-04T08:35:20.051Z,96.20
2019-02-04T08:36:24.239Z,96.30
2019-02-04T08:37:28.375Z,96.30
2019-02-04T08:38:32.525Z,96.30
2019-02-04T08:39:36.683Z,96.30
2019-02-04T08:40:40.870Z,96.60
2019-02-04T08:41:45.908Z,96.30
2019-02-04T08:42:50.051Z,96.30
2019-02-04T08:43:54.208Z,96.30
2019-02-04T08:44:58.661Z,96.10
2019-02-04T08:46:03.128Z,96.10
2019-02-04T08:47:07.482Z,96.00
2019-02-04T08:48:12.021Z,96.00
2019-02-04T08:49:16.155Z,95.90
2019-02-04T08:50:20.684Z,95.90
2019-02-04T08:51:24.875Z,95.90
2019-02-04T08:52:28.983Z,96.00
2019-02-04T08:53:33.123Z,96.10
2019-02-04T08:54:37.270Z,96.10
2019-02-04T08:55:41.384Z,96.00
2019-02-04T08:56:45.514Z,95.80
2019-02-04T08:57:49.600Z,95.80
2019-02-04T08:58:53.738Z,95.70
2019-02-04T08:59:58.003Z,95.70
2019-02-04T09:01:02.503Z,95.70
2019-02-04T09:02:06.720Z,95.70
2019-02-04T09:03:11.151Z,95.80
2019-02-04T09:04:15.226Z,95.90
2019-02-04T09:05:19.542Z,95.90
2019-02-04T09:06:23.698Z,95.90
2019-02-04T09:07:27.975Z,95.90
2019-02-04T09:08:32.144Z,95.70
2019-02-04T09:09:36.263Z,95.70
2019-02-04T09:10:40.425Z,95.50
2019-02-04T09:11:44.578Z,95.30
2019-02-04T09:12:48.724Z,95.30
2019-02-04T09:13:52.862Z,95.20
2019-02-04T09:14:57.215Z,95.10
2019-02-04T09:16:01.655Z,95.20
2019-02-04T09:17:05.835Z,95.20
2019-02-04T09:18:10.040Z,95.20
2019-02-04T09:19:14.115Z,95.00
2019-02-04T09:20:18.284Z,95.00
2019-02-04T09:21:22.364Z,95.00
2019-02-04T09:22:26.546Z,95.00
2019-02-04T09:23:30.614Z,94.90
2019-02-04T09:24:34.767Z,95.00
2019-02-04T09:25:38.862Z,94.80
2019-02-04T09:26:42.935Z,94.80
2019-02-04T09:27:47.049Z,94.90
2019-02-04T09:28:51.196Z,94.90
2019-02-04T09:29:55.541Z,95.00
2019-02-04T09:31:00.106Z,95.10
2019-02-04T09:32:04.277Z,95.00
2019-02-04T09:33:08.808Z,94.90
2019-02-04T09:34:13.135Z,94.90
2019-02-04T09:35:18.419Z,94.90
2019-02-04T09:36:22.523Z,94.90
2019-02-04T09:37:26.688Z,94.90
2019-02-04T09:38:30.876Z,94.90
2019-02-04T09:39:35.018Z,95.00
2019-02-04T09:40:43.934Z,94.60
2019-02-04T09:41:48.030Z,94.70
2019-02-04T09:42:52.166Z,94.60
2019-02-04T09:43:56.283Z,94.70
2019-02-04T09:45:00.370Z,94.60
2019-02-04T09:46:04.580Z,94.70
2019-02-04T09:47:09.132Z,94.60
2019-02-04T09:48:22.398Z,94.50
2019-02-04T09:49:26.869Z,94.30
2019-02-04T09:50:32.642Z,94.30
2019-02-04T09:51:36.836Z,94.20
2019-02-04T09:52:41.040Z,94.30
2019-02-04T09:53:45.191Z,94.40
2019-02-04T09:54:49.366Z,94.10
2019-02-04T09:55:53.527Z,94.10
2019-02-04T09:56:57.673Z,94.20
2019-02-04T09:58:01.824Z,94.20
2019-02-04T09:59:05.998Z,94.20
2019-02-04T10:00:12.869Z,94.00
2019-02-04T10:01:17.428Z,94.00
2019-02-04T10:02:21.545Z,94.00
2019-02-04T10:03:26.085Z,94.00
2019-02-04T10:04:30.208Z,94.00
2019-02-04T10:05:34.371Z,93.90
2019-02-04T10:06:38.917Z,93.80
2019-02-04T10:07:43.112Z,93.90
2019-02-04T10:08:47.187Z,93.80
2019-02-04T10:09:51.267Z,93.90
2019-02-04T10:10:55.366Z,93.80
2019-02-04T10:11:59.471Z,93.90
2019-02-04T10:13:03.578Z,93.90
2019-02-04T10:14:07.747Z,93.60
2019-02-04T10:15:14.682Z,93.60
2019-02-04T10:16:18.895Z,93.60
2019-02-04T10:17:23.026Z,93.60
2019-02-04T10:18:27.180Z,93.60
2019-02-04T10:19:31.332Z,93.60
2019-02-04T10:20:35.482Z,93.60
2019-02-04T10:21:39.644Z,93.60
2019-02-04T10:22:43.716Z,93.50
2019-02-04T10:23:48.164Z,93.60
2019-02-04T10:24:52.343Z,93.40
2019-02-04T10:25:56.503Z,93.40
2019-02-04T10:27:00.659Z,93.40
2019-02-04T10:28:05.186Z,93.70
2019-02-04T10:29:09.866Z,93.40
2019-02-04T10:30:16.355Z,93.10
2019-02-04T10:31:20.465Z,93.10
2019-02-04T10:32:24.569Z,93.10
2019-02-04T10:33:28.683Z,93.20
2019-02-04T10:34:32.795Z,92.90
2019-02-04T10:35:36.869Z,92.80
2019-02-04T10:36:40.987Z,92.80
2019-02-04T10:37:45.341Z,92.70
2019-02-04T10:38:49.495Z,92.70
2019-02-04T10:39:53.855Z,92.80
2019-02-04T10:40:58.458Z,92.70
2019-02-04T10:42:02.595Z,92.80
2019-02-04T10:43:06.889Z,92.70
2019-02-04T10:44:11.491Z,92.70
2019-02-04T10:45:15.846Z,92.70
2019-02-04T10:46:19.958Z,92.60
2019-02-04T10:47:24.129Z,92.50
2019-02-04T10:48:28.331Z,92.40
2019-02-04T10:49:32.525Z,92.30
2019-02-04T10:50:45.673Z,92.10
2019-02-04T10:51:44.330Z,91.90
2019-02-04T10:52:48.445Z,91.90
2019-02-04T10:53:52.536Z,91.90
2019-02-04T10:54:56.680Z,91.60
2019-02-04T10:56:00.793Z,91.20
2019-02-04T10:57:05.344Z,91.10
2019-02-04T10:58:11.170Z,90.90
2019-02-04T10:59:15.352Z,90.70
2019-02-04T11:00:21.131Z,90.70
2019-02-04T11:01:25.485Z,90.70
2019-02-04T11:02:29.635Z,90.60
2019-02-04T11:03:33.921Z,90.40
2019-02-04T11:04:38.071Z,90.40
2019-02-04T11:05:42.352Z,90.20
2019-02-04T11:06:46.510Z,89.60
2019-02-04T11:07:50.677Z,89.30
2019-02-04T11:08:54.811Z,88.70
2019-02-04T11:09:58.974Z,88.70
2019-02-04T11:11:03.141Z,88.50
2019-02-04T11:12:07.480Z,87.40
2019-02-04T11:13:13.939Z,87.00
2019-02-04T11:14:18.318Z,86.70
2019-02-04T11:15:25.508Z,86.60
2019-02-04T11:16:28.547Z,86.80
2019-02-04T11:17:32.713Z,87.10
2019-02-04T11:18:36.935Z,87.20
2019-02-04T11:19:41.046Z,87.10
2019-02-04T11:20:57.190Z,87.10
2019-02-04T11:21:51.458Z,87.20
2019-02-04T11:22:55.596Z,86.70
2019-02-04T11:23:59.709Z,86.40
2019-02-04T11:25:04.097Z,86.00
2019-02-04T11:26:08.774Z,85.60
2019-02-04T11:27:13.033Z,84.70
2019-02-04T11:28:17.229Z,84.50
2019-02-04T11:29:21.357Z,84.60
2019-02-04T11:30:34.024Z,83.40
2019-02-04T11:31:38.213Z,81.90
2019-02-04T11:32:42.338Z,81.20
2019-02-04T11:33:46.803Z,81.20
2019-02-04T11:34:51.040Z,80.90
2019-02-04T11:35:55.287Z,80.60
2019-02-04T11:36:59.464Z,80.50
2019-02-04T11:38:03.571Z,80.10
2019-02-04T11:39:09.830Z,80.00
2019-02-04T11:40:15.767Z,79.60
2019-02-04T11:41:19.915Z,79.40
2019-02-04T11:42:24.071Z,79.30
2019-02-04T11:43:28.141Z,79.40
2019-02-04T11:44:32.202Z,78.90
2019-02-04T11:45:36.328Z,78.90
2019-02-04T11:46:40.467Z,78.90
2019-02-04T11:47:44.626Z,78.90
2019-02-04T11:48:48.879Z,78.90
2019-02-04T11:49:53.051Z,77.10
2019-02-04T11:51:08.945Z,77.10
2019-02-04T11:52:03.354Z,77.50
2019-02-04T11:53:07.829Z,77.30
2019-02-04T11:54:12.383Z,77.60
2019-02-04T11:55:16.471Z,77.90
2019-02-04T11:56:20.579Z,77.80
2019-02-04T11:57:24.638Z,77.90
2019-02-04T11:58:28.769Z,77.90
2019-02-04T11:59:32.920Z,77.70
2019-02-04T12:00:37.026Z,77.50
2019-02-04T12:01:41.129Z,77.40
2019-02-04T12:02:45.394Z,77.30
2019-02-04T12:03:49.502Z,77.10
2019-02-04T12:04:53.644Z,76.90
2019-02-04T12:05:57.702Z,76.80
2019-02-04T12:07:02.048Z,76.80
2019-02-04T12:08:06.113Z,76.60
2019-02-04T12:09:11.003Z,76.80
2019-02-04T12:10:24.347Z,76.80
2019-02-04T12:11:28.505Z,76.80
2019-02-04T12:12:32.567Z,76.70
2019-02-04T12:13:36.734Z,76.70
2019-02-04T12:14:40.827Z,75.30
2019-02-04T12:15:44.911Z,75.00
2019-02-04T12:16:48.987Z,75.00
2019-02-04T12:17:53.149Z,74.80
2019-02-04T12:18:57.301Z,74.40
2019-02-04T12:20:01.480Z,74.40
2019-02-04T12:21:05.572Z,74.40
2019-02-04T12:22:10.096Z,74.10
2019-02-04T12:23:14.223Z,73.60
2019-02-04T12:24:18.291Z,72.40
2019-02-04T12:25:23.963Z,71.70
2019-02-04T12:26:28.439Z,70.60
2019-02-04T12:27:32.579Z,70.10
2019-02-04T12:28:36.763Z,69.90
2019-02-04T12:29:40.844Z,69.10
2019-02-04T12:30:45.052Z,69.70
2019-02-04T12:31:49.208Z,68.80
2019-02-04T12:32:53.307Z,68.40
2019-02-04T12:33:57.381Z,68.40
2019-02-04T12:35:01.475Z,68.30
2019-02-04T12:36:05.563Z,68.40
2019-02-04T12:37:10.082Z,68.80
2019-02-04T12:38:14.274Z,67.60
2019-02-04T12:39:21.078Z,66.90
2019-02-04T12:40:25.147Z,66.50
2019-02-04T12:41:29.548Z,66.00
2019-02-04T12:42:33.986Z,65.90
2019-02-04T12:43:38.126Z,65.70
2019-02-04T12:44:42.196Z,65.40
2019-02-04T12:45:46.263Z,65.20
2019-02-04T12:46:50.358Z,64.70
2019-02-04T12:47:54.447Z,64.50
2019-02-04T12:48:58.571Z,64.40
2019-02-04T12:50:02.660Z,64.40
2019-02-04T12:51:06.771Z,64.10
2019-02-04T12:52:11.280Z,64.10
2019-02-04T12:53:15.403Z,64.10
2019-02-04T12:54:19.511Z,63.80
2019-02-04T12:55:25.375Z,63.50
2019-02-04T12:56:29.457Z,63.20
2019-02-04T12:57:33.935Z,63.00
2019-02-04T12:58:38.312Z,62.40
2019-02-04T12:59:45.143Z,62.10
2019-02-04T13:00:48.196Z,61.10
2019-02-04T13:01:52.340Z,59.70
2019-02-04T13:02:56.431Z,59.50
2019-02-04T13:04:00.579Z,59.60
2019-02-04T13:05:05.564Z,59.80
2019-02-04T13:06:11.096Z,60.10
2019-02-04T13:07:15.235Z,60.30
2019-02-04T13:08:19.322Z,60.60
2019-02-04T13:09:23.406Z,60.70
2019-02-04T13:10:27.559Z,59.80
2019-02-04T13:11:31.636Z,59.10
2019-02-04T13:12:35.704Z,58.80
2019-02-04T13:13:39.803Z,58.60
2019-02-04T13:14:44.290Z,58.30
2019-02-04T13:15:48.633Z,57.80
2019-02-04T13:16:52.702Z,57.30
2019-02-04T13:17:56.781Z,56.60
2019-02-04T13:19:00.866Z,56.60
2019-02-04T13:20:06.928Z,55.80
2019-02-04T13:21:11.535Z,55.70
2019-02-04T13:22:15.647Z,55.70
2019-02-04T13:23:19.717Z,56.00
2019-02-04T13:24:23.814Z,56.20
2019-02-04T13:25:28.391Z,56.20
2019-02-04T13:26:32.544Z,56.30
2019-02-04T13:27:36.615Z,55.70
2019-02-04T13:28:40.700Z,55.10
2019-02-04T13:29:44.803Z,54.70
2019-02-04T13:30:49.155Z,54.30
2019-02-04T13:31:53.714Z,54.40
2019-02-04T13:32:57.786Z,54.30
2019-02-04T13:34:01.847Z,53.80
2019-02-04T13:35:07.052Z,53.70
2019-02-04T13:36:11.275Z,53.80
2019-02-04T13:37:15.347Z,53.50
2019-02-04T13:38:19.422Z,53.40
2019-02-04T13:39:23.615Z,53.30
2019-02-04T13:40:28.071Z,53.00
2019-02-04T13:41:32.180Z,53.10
2019-02-04T13:42:36.247Z,53.00
2019-02-04T13:43:40.306Z,53.10
2019-02-04T13:44:44.379Z,53.40
2019-02-04T13:45:48.483Z,52.70
2019-02-04T13:46:52.616Z,52.80
2019-02-04T13:47:57.157Z,52.80
2019-02-04T13:49:01.226Z,52.80
2019-02-04T13:50:06.214Z,52.80
2019-02-04T13:51:10.924Z,52.80
2019-02-04T13:52:15.402Z,52.90
2019-02-04T13:53:19.645Z,53.00
2019-02-04T13:54:23.727Z,53.00
2019-02-04T13:55:29.740Z,53.10
2019-02-04T13:56:33.843Z,53.30
2019-02-04T13:57:37.928Z,53.40
2019-02-04T13:58:42.084Z,53.40
2019-02-04T13:59:46.219Z,53.40
2019-02-04T14:00:50.515Z,53.50
2019-02-04T14:01:54.696Z,53.60
2019-02-04T14:02:59.848Z,53.60
2019-02-04T14:04:04.026Z,54.00
2019-02-04T14:05:09.047Z,53.40
2019-02-04T14:06:13.496Z,53.30
2019-02-04T14:07:17.592Z,53.30
2019-02-04T14:08:21.655Z,53.40
2019-02-04T14:09:25.723Z,53.50
2019-02-04T14:10:32.096Z,53.50
2019-02-04T14:11:36.172Z,53.60
2019-02-04T14:12:40.276Z,53.70
2019-02-04T14:13:44.343Z,53.90
2019-02-04T14:14:48.413Z,53.90
2019-02-04T14:15:52.490Z,54.10
2019-02-04T14:16:56.563Z,53.80
2019-02-04T14:18:00.734Z,53.70
2019-02-04T14:19:04.918Z,53.70
2019-02-04T14:20:11.802Z,53.70
2019-02-04T14:21:15.870Z,54.10